createdAt,value
2022-08-22T00:03:35.504Z,24.39
2022-08-22T00:09:40.185Z,24.34
2022-08-22T00:15:49.125Z,24.35
2022-08-22T00:22:04.302Z,24.26
2022-08-22T00:28:21.175Z,24.33
2022-08-22T00:34:26.446Z,24.32
2022-08-22T00:41:01.938Z,24.29
2022-08-22T00:47:40.625Z,24.30
2022-08-22T00:54:00.605Z,24.28
2022-08-22T01:00:21.710Z,24.29
2022-08-22T01:06:40.129Z,24.26
2022-08-22T01:12:41.736Z,24.26
2022-08-22T01:18:43.362Z,24.26
2022-08-22T01:25:19.980Z,24.24
2022-08-22T01:32:01.984Z,24.23
2022-08-22T01:38:22.050Z,24.21
2022-08-22T01:44:24.396Z,24.20
2022-08-22T01:50:44.651Z,24.20
2022-08-22T01:56:47.279Z,24.16
2022-08-22T02:03:01.563Z,24.16
2022-08-22T02:09:14.562Z,24.12
2022-08-22T02:15:34.397Z,24.15
2022-08-22T02:21:51.207Z,24.04
2022-08-22T02:28:06.317Z,24.13
2022-08-22T02:34:58.942Z,24.11
2022-08-22T02:41:04.178Z,24.12
2022-08-22T02:47:15.826Z,24.12
2022-08-22T02:53:32.085Z,24.06
2022-08-22T02:59:38.505Z,24.10
2022-08-22T03:05:46.062Z,24.08
2022-08-22T03:12:01.363Z,24.03
2022-08-22T03:18:21.687Z,24.08
2022-08-22T03:24:26.398Z,24.05
2022-08-22T03:30:38.513Z,24.00
2022-08-22T03:36:47.658Z,24.01
2022-08-22T03:43:14.435Z,23.90
2022-08-22T03:49:42.196Z,24.03
2022-08-22T03:55:44.276Z,24.03
2022-08-22T04:02:41.799Z,24.06
2022-08-22T04:08:45.993Z,24.02
2022-08-22T04:15:21.611Z,24.01
2022-08-22T04:21:47.816Z,24.03
2022-08-22T04:28:06.241Z,24.10
2022-08-22T04:34:22.799Z,24.09
2022-08-22T04:40:46.710Z,24.17
2022-08-22T04:47:17.515Z,24.17
2022-08-22T04:53:25.212Z,23.82
2022-08-22T04:59:29.452Z,23.77
2022-08-22T05:05:39.067Z,24.14
2022-08-22T05:11:42.564Z,24.42
2022-08-22T05:17:47.506Z,24.84
2022-08-22T05:24:08.340Z,25.00
2022-08-22T05:30:16.394Z,25.06
2022-08-22T05:36:30.391Z,25.16
2022-08-22T05:42:35.096Z,25.08
2022-08-22T05:48:45.485Z,25.32
2022-08-22T05:54:58.890Z,25.12
2022-08-22T06:01:32.893Z,24.93
2022-08-22T06:07:48.847Z,24.88
2022-08-22T06:13:58.305Z,24.90
2022-08-22T06:20:00.601Z,24.88
2022-08-22T06:26:04.390Z,24.91
2022-08-22T06:32:58.541Z,24.94
2022-08-22T06:39:10.711Z,25.29
2022-08-22T06:45:19.394Z,25.39
2022-08-22T06:51:25.149Z,25.51
2022-08-22T06:57:34.896Z,25.50
2022-08-22T07:03:40.391Z,25.44
2022-08-22T07:09:42.352Z,25.15
2022-08-22T07:15:50.811Z,25.36
2022-08-22T07:21:53.226Z,25.50
2022-08-22T07:28:36.862Z,25.62
2022-08-22T07:34:54.606Z,25.61
2022-08-22T07:41:16.697Z,25.69
2022-08-22T07:47:26.712Z,25.62
2022-08-22T07:53:30.581Z,25.79
2022-08-22T07:59:37.278Z,25.64
2022-08-22T08:05:43.016Z,25.06
2022-08-22T08:11:45.065Z,25.36
2022-08-22T08:17:51.407Z,25.32
2022-08-22T08:23:55.825Z,25.56
2022-08-22T08:30:15.472Z,25.56
2022-08-22T08:36:47.524Z,25.43
2022-08-22T08:43:22.888Z,25.53
2022-08-22T08:49:58.115Z,25.53
2022-08-22T08:56:19.801Z,25.55
2022-08-22T09:02:52.419Z,25.44
2022-08-22T09:09:29.429Z,25.46
2022-08-22T09:16:08.227Z,25.37
2022-08-22T09:22:14.982Z,25.39
2022-08-22T09:28:28.214Z,25.26
2022-08-22T09:35:02.006Z,25.26
2022-08-22T09:41:19.625Z,25.51
2022-08-22T09:47:35.165Z,25.54
2022-08-22T09:53:56.442Z,25.51
2022-08-22T10:00:05.403Z,25.32
2022-08-22T10:06:17.961Z,25.27
2022-08-22T10:12:29.687Z,25.33
2022-08-22T10:18:52.792Z,25.32
2022-08-22T10:25:01.597Z,25.34
2022-08-22T10:31:15.019Z,25.60
2022-08-22T10:37:32.614Z,25.77
2022-08-22T10:44:00.607Z,25.67
2022-08-22T10:50:35.291Z,25.82
2022-08-22T10:56:46.195Z,25.71
2022-08-22T11:03:02.487Z,25.68
2022-08-22T11:09:19.238Z,25.64
2022-08-22T11:16:07.276Z,25.66
2022-08-22T11:22:36.697Z,25.68
2022-08-22T11:29:13.798Z,25.89
2022-08-22T11:35:26.145Z,25.74
2022-08-22T11:41:52.772Z,25.73
2022-08-22T11:48:09.706Z,25.61
2022-08-22T11:54:31.259Z,25.54
2022-08-22T12:01:11.806Z,25.51
2022-08-22T12:07:33.284Z,25.59
2022-08-22T12:14:05.892Z,25.58
2022-08-22T12:20:16.246Z,25.52
2022-08-22T12:26:45.068Z,25.60
2022-08-22T12:33:10.630Z,25.61
2022-08-22T12:39:45.810Z,25.68
2022-08-22T12:46:13.028Z,25.66
2022-08-22T12:52:32.547Z,25.62
2022-08-22T12:59:09.662Z,25.66
2022-08-22T13:05:24.771Z,25.78
2022-08-22T13:11:30.920Z,25.92
2022-08-22T13:17:33.228Z,25.76
2022-08-22T13:23:43.412Z,25.89
2022-08-22T13:29:52.111Z,25.95
2022-08-22T13:35:58.337Z,25.92
2022-08-22T13:42:07.685Z,25.93
2022-08-22T13:48:16.424Z,26.57
2022-08-22T13:54:39.987Z,26.91
2022-08-22T14:01:01.078Z,26.95
2022-08-22T14:07:03.707Z,26.63
2022-08-22T14:13:12.149Z,26.30
2022-08-22T14:19:38.278Z,26.10
2022-08-22T14:25:54.657Z,26.12
2022-08-22T14:32:22.565Z,26.13
2022-08-22T14:38:33.217Z,26.08
2022-08-22T14:44:49.204Z,25.99
2022-08-22T14:51:10.198Z,25.86
2022-08-22T14:57:19.721Z,25.91
2022-08-22T15:03:25.030Z,25.85
2022-08-22T15:09:34.148Z,25.83
2022-08-22T15:15:49.376Z,25.82
2022-08-22T15:22:20.454Z,25.81
2022-08-22T15:28:22.846Z,25.76
2022-08-22T15:49:54.650Z,25.95
2022-08-22T15:56:07.150Z,25.79
2022-08-22T16:02:42.164Z,25.74
2022-08-22T16:08:52.608Z,25.64
2022-08-22T16:14:55.036Z,25.41
2022-08-22T16:20:58.152Z,25.39
2022-08-22T16:27:18.515Z,25.34
2022-08-22T16:33:39.244Z,25.48
2022-08-22T16:40:06.935Z,25.58
2022-08-22T16:46:31.376Z,25.54
2022-08-22T16:52:50.444Z,25.51
2022-08-22T16:59:19.653Z,25.54
2022-08-22T17:05:42.221Z,25.57
2022-08-22T17:11:55.019Z,25.51
2022-08-22T17:17:59.536Z,25.45
2022-08-22T17:24:31.650Z,25.48
2022-08-22T17:30:58.697Z,25.40
2022-08-22T17:37:38.644Z,24.66
2022-08-22T17:43:58.772Z,24.92
2022-08-22T17:50:10.756Z,24.93
2022-08-22T17:56:18.199Z,25.22
2022-08-22T18:02:23.408Z,25.24
2022-08-22T18:08:38.455Z,24.77
2022-08-22T18:14:55.523Z,24.51
2022-08-22T18:21:06.575Z,24.52
2022-08-22T18:27:30.021Z,24.36
2022-08-22T18:33:57.337Z,24.40
2022-08-22T18:40:16.594Z,24.49
2022-08-22T18:46:48.234Z,24.40
2022-08-22T18:52:55.952Z,24.29
2022-08-22T18:59:18.802Z,24.83
2022-08-22T19:05:26.254Z,24.88
2022-08-22T19:11:53.210Z,24.91
2022-08-22T19:18:06.741Z,24.93
2022-08-22T19:24:29.790Z,24.95
2022-08-22T19:30:34.267Z,24.97
2022-08-22T19:36:36.277Z,24.96
2022-08-22T19:42:44.200Z,25.01
2022-08-22T19:48:50.341Z,25.01
2022-08-22T19:55:28.834Z,25.04
2022-08-22T20:01:39.788Z,25.03
2022-08-22T20:07:56.603Z,25.03
2022-08-22T20:14:14.497Z,25.02
2022-08-22T20:20:24.067Z,25.03
2022-08-22T20:26:52.198Z,24.83
2022-08-22T20:33:20.712Z,25.01
2022-08-22T20:39:26.306Z,25.05
2022-08-22T20:45:29.563Z,24.96
2022-08-22T20:51:33.849Z,25.03
2022-08-22T20:57:49.202Z,25.03
2022-08-22T21:03:53.427Z,25.01
2022-08-22T21:10:22.758Z,24.96
2022-08-22T21:16:31.986Z,24.91
2022-08-22T21:22:33.755Z,24.97
2022-08-22T21:28:54.096Z,24.93
2022-08-22T21:34:56.100Z,24.88
2022-08-22T21:41:04.653Z,24.95
2022-08-22T21:47:31.384Z,24.93
2022-08-22T21:53:33.364Z,24.76
2022-08-22T21:59:51.387Z,24.41
2022-08-22T22:06:03.064Z,24.46
2022-08-22T22:12:04.906Z,24.46
2022-08-22T22:18:07.365Z,24.42
2022-08-22T22:24:09.072Z,24.48
2022-08-22T22:30:11.688Z,24.48
2022-08-22T22:36:20.563Z,24.48
2022-08-22T22:42:22.248Z,24.48
2022-08-22T22:48:24.887Z,24.52
2022-08-22T22:54:27.577Z,24.62
2022-08-22T23:00:34.885Z,24.58
2022-08-22T23:06:36.684Z,24.54
2022-08-22T23:12:39.292Z,24.57
2022-08-22T23:18:42.030Z,24.60
2022-08-22T23:24:43.822Z,24.60
2022-08-22T23:30:45.536Z,24.55
2022-08-22T23:36:48.347Z,24.51
2022-08-22T23:42:50.237Z,24.56
2022-08-22T23:48:52.857Z,24.47
2022-08-22T23:54:55.660Z,24.52
